Time;durP1;ratioP1;P1;durP2;ratioP2;P2;SDS_P1;SDS_P2;PMS_P1;PMS_P2;Temp;Humidity;BMP_temperature;BMP_pressure;BME280_temperature;BME280_humidity;BME280_pressure;Samples;Min_cycle;Max_cycle;Signal;HPM_P1;HPM_P2
2021/10/13 00:00:12;;;;;;;4.43;0.93;;;;;;;5.78;100.00;101047.78;5093242;28;20671;-72
2021/10/13 00:02:38;;;;;;;1.17;0.80;;;;;;;5.76;100.00;101050.75;5093057;28;20178;-72
2021/10/13 00:05:04;;;;;;;0.80;0.70;;;;;;;5.73;100.00;101051.28;5093314;28;20251;-72
2021/10/13 00:07:30;;;;;;;1.57;1.47;;;;;;;5.71;100.00;101056.16;5093071;28;20193;-72
2021/10/13 00:09:57;;;;;;;1.10;1.00;;;;;;;5.69;100.00;101061.03;5092913;28;20174;-72
2021/10/13 00:12:24;;;;;;;0.90;0.90;;;;;;;5.72;100.00;101049.66;5092444;28;20194;-73
2021/10/13 00:14:50;;;;;;;2.63;1.00;;;;;;;5.70;100.00;101049.13;5074668;28;20255;-72
2021/10/13 00:17:15;;;;;;;1.00;0.90;;;;;;;5.69;100.00;101052.91;5093075;28;20642;-73
2021/10/13 00:19:41;;;;;;;1.97;1.37;;;;;;;5.68;100.00;101059.41;5092952;28;20554;-73
2021/10/13 00:22:06;;;;;;;1.47;1.37;;;;;;;5.64;100.00;101061.00;5074698;28;20178;-72
2021/10/13 00:24:31;;;;;;;1.27;1.10;;;;;;;5.59;100.00;101055.56;5074289;28;20182;-72
2021/10/13 00:26:57;;;;;;;1.20;1.10;;;;;;;5.60;100.00;101055.28;5074557;28;20625;-72
2021/10/13 00:29:22;;;;;;;2.13;1.30;;;;;;;5.60;100.00;101059.91;5092673;28;20627;-72
2021/10/13 00:31:48;;;;;;;1.70;1.60;;;;;;;5.62;100.00;101055.03;5092258;28;20224;-72
2021/10/13 00:34:15;;;;;;;1.87;1.70;;;;;;;5.59;100.00;101063.69;5090944;28;20196;-72
2021/10/13 00:36:40;;;;;;;1.80;1.70;;;;;;;5.58;100.00;101059.34;5092789;28;20174;-73
2021/10/13 00:39:06;;;;;;;1.43;1.23;;;;;;;5.55;100.00;101054.47;5078942;28;20223;-73
2021/10/13 00:41:31;;;;;;;5.43;1.90;;;;;;;5.54;100.00;101050.13;5099779;28;20173;-72
2021/10/13 00:43:57;;;;;;;2.23;1.60;;;;;;;5.51;100.00;101062.31;5078125;28;20200;-72
2021/10/13 00:46:22;;;;;;;1.47;1.37;;;;;;;5.52;100.00;101063.13;5074880;28;20178;-72
2021/10/13 00:48:47;;;;;;;8.27;1.83;;;;;;;5.49;100.00;101072.56;5074635;28;20166;-72
2021/10/13 00:51:14;;;;;;;1.27;1.17;;;;;;;5.51;100.00;101077.75;5074209;28;20198;-72
2021/10/13 00:53:39;;;;;;;1.60;1.40;;;;;;;5.49;100.00;101069.03;5092366;28;20540;-73
2021/10/13 00:56:05;;;;;;;1.60;1.50;;;;;;;5.47;100.00;101080.16;5092498;28;20244;-73
2021/10/13 00:58:30;;;;;;;2.27;1.93;;;;;;;5.48;100.00;101075.53;5092445;28;20202;-72
2021/10/13 01:01:02;;;;;;;1.80;1.70;;;;;;;5.49;100.00;101074.47;5092365;28;20208;-72
2021/10/13 01:03:46;;;;;;;2.17;1.90;;;;;;;5.50;100.00;101071.53;5092282;28;20256;-72
2021/10/13 01:06:40;;;;;;;2.33;1.60;;;;;;;5.47;100.00;101068.50;5073948;28;20254;-73
2021/10/13 01:09:23;;;;;;;1.77;1.50;;;;;;;5.44;100.00;101071.72;5073961;28;20181;-72
2021/10/13 01:12:07;;;;;;;3.47;2.20;;;;;;;5.44;100.00;101077.16;5073935;28;20177;-73
2021/10/13 01:15:02;;;;;;;1.70;1.60;;;;;;;5.44;100.00;101077.16;5091749;28;20194;-72
2021/10/13 01:17:40;;;;;;;2.50;2.30;;;;;;;5.46;100.00;101085.84;5073824;28;20257;-73
2021/10/13 01:20:26;;;;;;;2.90;2.60;;;;;;;5.44;100.00;101079.88;5091847;28;20209;-73
2021/10/13 01:23:18;;;;;;;4.33;3.57;;;;;;;5.46;100.00;101088.53;5091805;28;20170;-73
2021/10/13 01:26:05;;;;;;;3.20;2.93;;;;;;;5.44;100.00;101077.97;5091680;28;20232;-73
2021/10/13 01:28:32;;;;;;;10.10;3.43;;;;;;;5.50;100.00;101074.22;5091858;28;20170;-72
2021/10/13 01:31:04;;;;;;;4.27;3.87;;;;;;;5.55;100.00;101090.50;5073443;28;20284;-73
2021/10/13 01:33:48;;;;;;;3.60;3.30;;;;;;;5.57;100.00;101088.34;5091604;28;20193;-72
2021/10/13 01:36:19;;;;;;;4.20;3.80;;;;;;;5.58;100.00;101043.91;5091592;28;20180;-72
2021/10/13 01:38:50;;;;;;;3.53;3.20;;;;;;;5.58;100.00;101046.63;5091611;28;20208;-72
2021/10/13 01:41:18;;;;;;;3.87;3.57;;;;;;;5.54;100.00;101045.53;5091122;28;20180;-72
2021/10/13 01:43:46;;;;;;;4.17;3.87;;;;;;;5.55;100.00;101054.47;5091306;28;20661;-73
2021/10/13 01:46:13;;;;;;;2.97;2.67;;;;;;;5.54;100.00;101071.81;5091391;28;20178;-72
2021/10/13 01:48:40;;;;;;;4.73;3.77;;;;;;;5.56;100.00;101069.66;5091376;28;20169;-72
2021/10/13 01:51:07;;;;;;;5.27;3.17;;;;;;;5.60;100.00;101076.97;5073037;28;20189;-72
2021/10/13 01:53:33;;;;;;;3.97;3.57;;;;;;;5.64;100.00;101074.56;5073196;28;20217;-72
2021/10/13 01:56:00;;;;;;;6.83;5.00;;;;;;;5.63;100.00;101078.34;5072962;28;20174;-72
2021/10/13 01:58:27;;;;;;;5.27;3.83;;;;;;;5.62;100.00;101082.94;5091137;28;20174;-72
2021/10/13 02:00:53;;;;;;;5.00;3.80;;;;;;;5.58;100.00;101081.03;5072991;28;20178;-72
2021/10/13 02:03:23;;;;;;;4.63;4.23;;;;;;;5.55;100.00;101070.72;5073129;28;20200;-72
2021/10/13 02:05:51;;;;;;;4.10;3.67;;;;;;;5.59;100.00;101080.78;5091018;28;20226;-73
2021/10/13 02:08:19;;;;;;;4.97;3.43;;;;;;;5.59;100.00;101080.78;5072952;28;20213;-72
2021/10/13 02:10:47;;;;;;;4.03;3.63;;;;;;;5.61;100.00;101081.31;5091005;28;20208;-72
2021/10/13 02:13:14;;;;;;;3.43;3.07;;;;;;;5.60;100.00;101081.59;5091092;28;20178;-72
2021/10/13 02:15:43;;;;;;;5.27;3.90;;;;;;;5.58;100.00;101079.13;5072520;28;20255;-72
2021/10/13 02:18:13;;;;;;;5.60;5.10;;;;;;;5.60;100.00;101085.09;5073071;28;20536;-72
2021/10/13 02:20:39;;;;;;;5.27;4.77;;;;;;;5.64;100.00;101104.38;5072848;28;20202;-72
2021/10/13 02:23:06;;;;;;;3.53;2.80;;;;;;;5.64;100.00;101086.25;5090940;28;20626;-72
2021/10/13 02:25:37;;;;;;;15.03;4.73;;;;;;;5.61;100.00;101096.75;5090729;28;20223;-73
2021/10/13 02:28:08;;;;;;;3.67;3.33;;;;;;;5.60;100.00;101087.00;5072789;28;20228;-73
2021/10/13 02:30:34;;;;;;;6.13;5.37;;;;;;;5.62;100.00;101092.97;5090896;28;20166;-72
2021/10/13 02:32:59;;;;;;;3.83;3.53;;;;;;;5.63;100.00;101095.41;5090734;28;20234;-72
2021/10/13 02:35:25;;;;;;;4.67;4.27;;;;;;;5.62;100.00;101091.06;5089996;28;20756;-72
2021/10/13 02:37:50;;;;;;;5.23;3.87;;;;;;;5.66;100.00;101100.34;5072677;28;20633;-72
2021/10/13 02:40:16;;;;;;;4.80;4.40;;;;;;;5.64;100.00;101096.22;5090568;28;20255;-72
2021/10/13 02:42:42;;;;;;;3.00;2.73;;;;;;;5.64;100.00;101088.94;5072338;28;20210;-72
2021/10/13 02:45:08;;;;;;;2.90;2.73;;;;;;;5.63;100.00;101102.75;5090352;28;20170;-72
2021/10/13 02:47:51;;;;;;;10.20;2.77;;;;;;;5.64;100.00;101117.91;5090587;28;20680;-72
2021/10/13 02:50:22;;;;;;;4.33;3.97;;;;;;;5.63;100.00;101127.13;5090650;28;20166;-72
2021/10/13 02:52:55;;;;;;;4.33;2.73;;;;;;;5.65;100.00;101125.81;5090570;28;20193;-72
2021/10/13 02:55:36;;;;;;;4.63;4.23;;;;;;;5.63;100.00;101138.78;5072084;28;20166;-72
2021/10/13 02:58:13;;;;;;;4.07;3.67;;;;;;;5.64;100.00;101128.75;5072422;28;20192;-72
2021/10/13 03:00:39;;;;;;;4.50;3.93;;;;;;;5.67;100.00;101129.06;5090533;28;20240;-72
2021/10/13 03:03:27;;;;;;;7.07;6.47;;;;;;;5.72;100.00;101141.84;5072289;28;20178;-72
2021/10/13 03:05:56;;;;;;;3.47;3.17;;;;;;;5.74;100.00;101134.25;5090138;28;20185;-72
2021/10/13 03:08:24;;;;;;;5.73;3.10;;;;;;;5.77;100.00;101141.84;5090425;28;20185;-72
2021/10/13 03:10:52;;;;;;;6.10;5.03;;;;;;;5.77;100.00;101141.03;5072291;28;20182;-72
2021/10/13 03:13:23;;;;;;;3.13;2.87;;;;;;;5.77;100.00;101149.19;5090459;28;20178;-72
2021/10/13 03:15:51;;;;;;;2.47;2.37;;;;;;;5.80;100.00;101154.91;5090137;28;20241;-72
2021/10/13 03:18:17;;;;;;;5.17;2.90;;;;;;;5.79;100.00;101147.88;5090284;28;20170;-72
2021/10/13 03:20:43;;;;;;;5.30;4.80;;;;;;;5.79;100.00;101149.75;5072106;28;20541;-72
2021/10/13 03:23:12;;;;;;;2.43;2.23;;;;;;;5.77;100.00;101163.53;5072255;28;20177;-72
2021/10/13 03:25:38;;;;;;;2.33;2.10;;;;;;;5.75;100.00;101156.75;5090209;28;20680;-73
2021/10/13 03:28:04;;;;;;;2.83;2.47;;;;;;;5.75;100.00;101157.56;5090162;28;20182;-72
2021/10/13 03:30:30;;;;;;;4.90;4.47;;;;;;;5.74;100.00;101180.34;5072121;28;20235;-72
2021/10/13 03:32:56;;;;;;;4.60;4.20;;;;;;;5.73;100.00;101153.50;5072224;28;20170;-72
2021/10/13 03:35:32;;;;;;;4.70;4.40;;;;;;;5.71;100.00;101158.38;5089980;28;20185;-72
2021/10/13 03:38:02;;;;;;;5.13;2.23;;;;;;;5.68;100.00;101163.25;5072056;28;20173;-72
2021/10/13 03:40:29;;;;;;;5.70;4.70;;;;;;;5.68;100.00;101170.56;5072185;28;20193;-72
2021/10/13 03:42:55;;;;;;;3.87;3.33;;;;;;;5.71;100.00;101166.50;5071521;28;20255;-72
2021/10/13 03:45:22;;;;;;;3.33;3.03;;;;;;;5.67;100.00;101163.50;5089882;28;20633;-72
2021/10/13 03:47:48;;;;;;;1.60;1.20;;;;;;;5.65;100.00;101157.53;5093045;28;20174;-72
2021/10/13 03:50:16;;;;;;;3.50;3.20;;;;;;;5.63;100.00;101171.31;5075516;28;20174;-72
2021/10/13 03:52:42;;;;;;;6.83;5.23;;;;;;;5.64;100.00;101183.81;5093616;28;20676;-72
2021/10/13 03:55:10;;;;;;;3.93;3.63;;;;;;;5.64;100.00;101182.97;5075377;28;20177;-72
2021/10/13 03:57:35;;;;;;;5.63;5.13;;;;;;;5.63;100.00;101178.63;5093616;28;20170;-72
2021/10/13 04:00:03;;;;;;;6.23;5.63;;;;;;;5.63;100.00;101178.63;5093806;28;20604;-72
2021/10/13 04:02:29;;;;;;;4.73;4.37;;;;;;;5.65;100.00;101198.19;5093393;28;20256;-72
2021/10/13 04:04:54;;;;;;;6.50;5.67;;;;;;;5.63;100.00;101193.00;5093233;28;20620;-72
2021/10/13 04:07:19;;;;;;;12.33;6.57;;;;;;;5.61;100.00;101191.63;5093367;28;20654;-72
2021/10/13 04:09:44;;;;;;;5.43;4.83;;;;;;;5.62;100.00;101196.78;5093550;28;20181;-72
2021/10/13 04:12:10;;;;;;;8.83;5.03;;;;;;;5.63;100.00;101200.31;5093419;28;20174;-72
2021/10/13 04:14:35;;;;;;;6.33;5.37;;;;;;;5.63;100.00;101205.75;5075108;28;20177;-72
2021/10/13 04:17:00;;;;;;;4.77;4.27;;;;;;;5.61;100.00;101210.59;5093176;28;20265;-72
2021/10/13 04:19:26;;;;;;;6.10;4.93;;;;;;;5.64;100.00;101207.38;5093190;28;20577;-72
2021/10/13 04:21:51;;;;;;;5.20;4.80;;;;;;;5.65;100.00;101206.31;5074941;28;20633;-73
2021/10/13 04:24:16;;;;;;;5.67;5.17;;;;;;;5.63;100.00;101200.31;5092830;28;20209;-72
2021/10/13 04:26:42;;;;;;;6.10;5.50;;;;;;;5.63;100.00;101214.69;5074778;28;20181;-72
2021/10/13 04:29:07;;;;;;;5.77;5.00;;;;;;;5.64;100.00;101231.78;5074672;28;20178;-72
2021/10/13 04:31:33;;;;;;;5.70;4.43;;;;;;;5.67;100.00;101225.84;5092927;28;20174;-72
2021/10/13 04:33:58;;;;;;;4.43;4.03;;;;;;;5.68;100.00;101227.47;5092751;28;20268;-72
2021/10/13 04:36:23;;;;;;;6.27;5.67;;;;;;;5.67;100.00;101263.81;5074870;28;20261;-72
2021/10/13 04:38:49;;;;;;;7.43;5.73;;;;;;;5.68;100.00;101263.53;5092807;28;20193;-72
2021/10/13 04:41:14;;;;;;;6.23;5.40;;;;;;;5.64;100.00;101267.84;5092463;28;20184;-73
2021/10/13 04:43:39;;;;;;;6.73;5.83;;;;;;;5.62;100.00;101263.75;5074278;28;20511;-72
2021/10/13 04:46:05;;;;;;;10.77;6.73;;;;;;;5.59;100.00;101267.78;5092689;28;20174;-72
2021/10/13 04:48:30;;;;;;;7.97;6.77;;;;;;;5.59;100.00;101275.91;5074549;28;20182;-72
2021/10/13 04:50:56;;;;;;;7.30;6.60;;;;;;;5.51;100.00;101265.56;5092884;28;20726;-73
2021/10/13 04:53:21;;;;;;;6.77;5.67;;;;;;;5.45;100.00;101258.44;5074085;28;20235;-72
2021/10/13 04:55:46;;;;;;;8.20;6.50;;;;;;;5.39;100.00;101270.31;5074080;28;20265;-72
2021/10/13 04:58:12;;;;;;;5.77;5.27;;;;;;;5.33;100.00;101279.47;5091942;28;20181;-72
2021/10/13 05:00:37;;;;;;;8.67;6.53;;;;;;;5.27;100.00;101277.78;5074021;28;20569;-73
2021/10/13 05:03:03;;;;;;;7.57;6.07;;;;;;;5.15;100.00;101250.03;5092368;28;20181;-73
2021/10/13 05:05:28;;;;;;;5.53;5.03;;;;;;;5.08;100.00;101255.66;5092054;28;20248;-73
2021/10/13 05:07:53;;;;;;;6.17;5.47;;;;;;;5.01;100.00;101268.56;5073822;28;20177;-73
2021/10/13 05:10:19;;;;;;;3.80;3.10;;;;;;;5.02;100.00;101275.63;5092202;28;20226;-72
2021/10/13 05:12:44;;;;;;;4.60;4.20;;;;;;;5.07;100.00;101264.84;5073712;28;20181;-72
2021/10/13 05:15:09;;;;;;;5.27;4.77;;;;;;;5.17;100.00;101277.66;5092101;28;20258;-72
2021/10/13 05:17:35;;;;;;;5.17;4.67;;;;;;;5.25;100.00;101271.81;5074101;28;20638;-72
2021/10/13 05:20:00;;;;;;;7.10;5.07;;;;;;;5.27;100.00;101286.72;5073842;28;20294;-70
2021/10/13 05:22:26;;;;;;;6.83;5.70;;;;;;;5.24;100.00;101279.13;5091775;28;20188;-72
2021/10/13 05:24:51;;;;;;;3.20;2.90;;;;;;;5.29;100.00;101271.03;5073192;28;20170;-73
2021/10/13 05:27:17;;;;;;;9.47;4.97;;;;;;;5.30;100.00;101275.38;5091845;28;20206;-73
2021/10/13 05:29:42;;;;;;;6.57;5.10;;;;;;;5.33;100.00;101282.16;5091912;28;20165;-73
2021/10/13 05:32:08;;;;;;;9.87;6.57;;;;;;;5.34;100.00;101281.09;5073746;28;20230;-73
2021/10/13 05:34:33;;;;;;;6.40;5.80;;;;;;;5.35;100.00;101290.84;5073335;28;20170;-72
2021/10/13 05:36:58;;;;;;;5.93;5.33;;;;;;;5.39;100.00;101300.13;5091739;28;20241;-72
2021/10/13 05:39:24;;;;;;;8.27;5.73;;;;;;;5.38;100.00;101295.78;5091610;28;20236;-76
2021/10/13 05:41:49;;;;;;;7.03;5.40;;;;;;;5.36;100.00;101301.47;5091419;28;20650;-73
2021/10/13 05:44:14;;;;;;;6.50;5.73;;;;;;;5.38;100.00;101306.63;5091551;28;20429;-73
2021/10/13 05:46:40;;;;;;;5.13;4.67;;;;;;;5.38;100.00;101306.63;5091556;28;20180;-73
2021/10/13 05:49:05;;;;;;;8.40;3.97;;;;;;;5.41;100.00;101294.47;5091466;28;20177;-72
2021/10/13 05:51:30;;;;;;;5.53;4.97;;;;;;;5.45;100.00;101309.94;5073348;28;20170;-73
2021/10/13 05:53:56;;;;;;;5.20;4.70;;;;;;;5.51;100.00;101311.63;5073020;28;20170;-73
2021/10/13 05:56:21;;;;;;;5.07;4.57;;;;;;;5.55;100.00;101314.66;5091239;28;20174;-72
2021/10/13 05:58:51;;;;;;;4.37;3.97;;;;;;;5.59;100.00;101310.34;5091276;28;20255;-73
2021/10/13 06:01:19;;;;;;;5.23;3.80;;;;;;;5.58;100.00;101325.78;5073259;28;20180;-73
2021/10/13 06:03:44;;;;;;;4.23;3.83;;;;;;;5.55;100.00;101323.59;5072790;28;20596;-75
2021/10/13 06:06:09;;;;;;;3.40;3.10;;;;;;;5.53;100.00;101328.47;5091030;28;20189;-75
2021/10/13 06:08:35;;;;;;;4.80;4.30;;;;;;;5.48;100.00;101335.69;5090583;28;20188;-75
2021/10/13 06:11:00;;;;;;;7.70;5.20;;;;;;;5.43;100.00;101341.91;5072951;28;20178;-75
2021/10/13 06:13:25;;;;;;;3.93;3.53;;;;;;;5.39;100.00;101346.19;5091452;28;20170;-74
2021/10/13 06:15:52;;;;;;;4.90;2.93;;;;;;;5.40;100.00;101341.59;5073067;28;20178;-73
2021/10/13 06:18:18;;;;;;;7.27;3.00;;;;;;;5.41;100.00;101352.19;5072771;28;20177;-75
2021/10/13 06:20:44;;;;;;;3.53;2.57;;;;;;;5.42;100.00;101353.00;5090914;28;20205;-75
2021/10/13 06:23:09;;;;;;;3.07;2.87;;;;;;;5.42;100.00;101350.28;5091033;28;20659;-74
2021/10/13 06:25:34;;;;;;;8.03;5.33;;;;;;;5.44;100.00;101357.09;5072357;28;20629;-74
2021/10/13 06:28:00;;;;;;;5.17;4.60;;;;;;;5.47;100.00;101361.16;5072516;28;20185;-74
2021/10/13 06:30:27;;;;;;;4.07;3.20;;;;;;;5.53;100.00;101373.72;5072654;28;20209;-74
2021/10/13 06:32:53;;;;;;;5.57;4.73;;;;;;;5.54;100.00;101365.31;5090966;28;20173;-74
2021/10/13 06:35:18;;;;;;;7.23;6.50;;;;;;;5.63;100.00;101376.50;5072291;28;20221;-74
2021/10/13 06:37:46;;;;;;;2.10;1.87;;;;;;;5.74;100.00;101391.00;5090374;28;20170;-74
2021/10/13 06:40:12;;;;;;;8.50;5.73;;;;;;;5.79;100.00;101383.75;5072238;28;20217;-74
2021/10/13 06:42:38;;;;;;;3.93;3.63;;;;;;;5.83;100.00;101392.19;5090423;28;20178;-74
2021/10/13 06:45:03;;;;;;;5.17;4.67;;;;;;;5.84;100.00;101394.63;5072396;28;20178;-74
2021/10/13 06:47:29;;;;;;;2.97;2.70;;;;;;;5.88;100.00;101382.19;5090607;28;20174;-74
2021/10/13 06:49:54;;;;;;;1.33;1.20;;;;;;;5.87;100.00;101385.97;5090938;28;20173;-74
2021/10/13 06:52:19;;;;;;;4.43;1.33;;;;;;;5.89;100.00;101381.13;5090691;28;20177;-74
2021/10/13 06:54:45;;;;;;;3.37;2.60;;;;;;;5.90;100.00;101395.53;5072411;28;20488;-75
2021/10/13 06:57:10;;;;;;;3.33;3.00;;;;;;;5.90;100.00;101390.91;5090776;28;20548;-81
2021/10/13 06:59:35;;;;;;;2.30;2.13;;;;;;;5.95;100.00;101404.53;5072469;28;20562;-77
2021/10/13 07:02:01;;;;;;;8.53;5.50;;;;;;;5.97;100.00;101404.28;5090860;28;20166;-83
2021/10/13 07:04:26;;;;;;;2.27;2.17;;;;;;;6.02;100.00;101420.59;5090656;28;20258;-74
2021/10/13 07:06:51;;;;;;;4.20;3.83;;;;;;;6.04;100.00;101415.72;5072409;28;20193;-74
2021/10/13 07:09:17;;;;;;;3.43;3.13;;;;;;;6.10;100.00;101422.03;5090429;28;20568;-75
2021/10/13 07:11:42;;;;;;;5.37;4.87;;;;;;;6.16;100.00;101421.81;5072519;28;20594;-74
2021/10/13 07:14:09;;;;;;;3.83;3.53;;;;;;;6.24;100.00;101428.69;5084550;28;20181;-74
2021/10/13 07:16:34;;;;;;;1.03;1.03;;;;;;;6.29;100.00;101434.16;5080308;28;20178;-74
2021/10/13 07:19:00;;;;;;;4.40;4.00;;;;;;;6.33;100.00;101427.13;5091030;28;20204;-73
2021/10/13 07:21:25;;;;;;;7.17;5.00;;;;;;;6.37;100.00;101427.44;5089349;28;20236;-74
2021/10/13 07:23:50;;;;;;;3.23;2.90;;;;;;;6.38;100.00;101435.31;5096448;28;20685;-74
2021/10/13 07:26:16;;;;;;;5.57;5.07;;;;;;;6.43;100.00;101437.25;5103622;28;20586;-73
2021/10/13 07:28:42;;;;;;;4.73;4.27;;;;;;;6.43;100.00;101438.06;5097031;28;20174;-73
2021/10/13 07:31:08;;;;;;;3.20;2.90;;;;;;;6.48;100.00;101421.81;5093459;28;20174;-73
2021/10/13 07:33:34;;;;;;;3.40;3.07;;;;;;;6.54;100.00;101447.13;5094430;28;20170;-73
2021/10/13 07:35:59;;;;;;;9.67;4.20;;;;;;;6.59;100.00;101438.19;5094364;28;20176;-73
2021/10/13 07:38:26;;;;;;;4.40;2.63;;;;;;;6.71;100.00;101453.22;5094024;28;20262;-73
2021/10/13 07:40:52;;;;;;;1.60;1.50;;;;;;;6.76;100.00;101457.84;5093779;28;20193;-73
2021/10/13 07:43:17;;;;;;;4.37;3.60;;;;;;;6.85;100.00;101453.56;5093786;28;20645;-73
2021/10/13 07:45:43;;;;;;;5.00;4.50;;;;;;;6.96;100.00;101470.78;5092276;28;20178;-73
2021/10/13 07:48:09;;;;;;;4.07;3.67;;;;;;;6.97;100.00;101462.34;5092372;28;20637;-73
2021/10/13 07:50:34;;;;;;;4.37;2.67;;;;;;;7.03;100.00;101460.47;5092209;28;20188;-73
2021/10/13 07:53:00;;;;;;;2.40;2.20;;;;;;;7.15;100.00;101472.78;5093575;28;20571;-73
2021/10/13 07:55:25;;;;;;;2.90;2.63;;;;;;;7.25;100.00;101469.31;5092963;28;20174;-73
2021/10/13 07:57:51;;;;;;;2.87;2.67;;;;;;;7.27;100.00;101467.16;5093544;28;20185;-73
2021/10/13 08:00:20;;;;;;;5.83;2.97;;;;;;;7.28;100.00;101487.81;5093629;28;20292;-73
2021/10/13 08:02:46;;;;;;;5.73;4.43;;;;;;;7.32;100.00;101469.06;5093646;28;20170;-73
2021/10/13 08:05:12;;;;;;;6.27;4.70;;;;;;;7.33;100.00;101467.97;5093125;28;20205;-73
2021/10/13 08:07:39;;;;;;;4.60;3.73;;;;;;;7.34;100.00;101477.75;5093440;28;20597;-73
2021/10/13 08:10:04;;;;;;;2.97;2.67;;;;;;;7.31;100.00;101473.69;5091937;28;20217;-73
2021/10/13 08:12:30;;;;;;;5.30;4.70;;;;;;;7.39;100.00;101496.84;5093339;28;20212;-73
2021/10/13 08:14:55;;;;;;;4.30;3.90;;;;;;;7.51;100.00;101499.31;5091788;28;20216;-73
2021/10/13 08:17:20;;;;;;;3.40;3.10;;;;;;;7.58;100.00;101505.34;5093273;28;20205;-73
2021/10/13 08:19:46;;;;;;;3.20;2.43;;;;;;;7.55;100.00;101497.72;5091820;28;20205;-73
2021/10/13 08:22:11;;;;;;;2.93;2.70;;;;;;;7.59;100.00;101496.09;5091884;28;20635;-73
2021/10/13 08:24:37;;;;;;;4.27;3.00;;;;;;;7.64;100.00;101499.66;5087299;28;20223;-79
2021/10/13 08:27:02;;;;;;;3.77;3.47;;;;;;;7.71;100.00;101513.84;5070701;28;20250;-74
2021/10/13 08:29:28;;;;;;;0.63;0.63;;;;;;;7.71;100.00;101502.97;5090223;28;20234;-74
2021/10/13 08:31:54;;;;;;;1.43;1.33;;;;;;;7.69;100.00;101505.13;5088797;28;20177;-74
2021/10/13 08:34:20;;;;;;;0.90;0.90;;;;;;;7.75;100.00;101505.97;5087453;28;20605;-74
2021/10/13 08:36:46;;;;;;;3.17;2.87;;;;;;;7.80;100.00;101510.59;5092352;28;20173;-74
2021/10/13 08:39:11;;;;;;;2.97;2.63;;;;;;;7.80;100.00;101503.25;5090922;28;20202;-74
2021/10/13 08:41:36;;;;;;;3.13;2.83;;;;;;;7.85;100.00;101503.28;5090834;28;20184;-74
2021/10/13 08:44:03;;;;;;;2.73;2.53;;;;;;;7.98;100.00;101510.94;5090793;28;20238;-75
2021/10/13 08:46:28;;;;;;;1.13;1.07;;;;;;;7.94;100.00;101507.09;5090941;28;20536;-74
2021/10/13 08:48:54;;;;;;;3.70;3.37;;;;;;;8.01;100.00;101510.41;5092318;28;20173;-75
2021/10/13 08:51:19;;;;;;;2.97;2.23;;;;;;;8.26;100.00;101523.28;5091008;28;20237;-75
2021/10/13 08:53:45;;;;;;;4.50;2.80;;;;;;;8.33;100.00;101518.38;5090539;28;20170;-75
2021/10/13 08:56:10;;;;;;;2.17;1.97;;;;;;;8.35;100.00;101518.94;5090692;28;20174;-75
2021/10/13 08:58:41;;;;;;;3.87;3.47;;;;;;;8.44;100.00;101521.97;5090594;28;20275;-74
2021/10/13 09:01:14;;;;;;;1.87;1.77;;;;;;;8.53;100.00;101514.06;5090742;28;20170;-74
2021/10/13 09:03:59;;;;;;;2.27;2.03;;;;;;;8.54;100.00;101513.00;5091704;28;20170;-74
2021/10/13 09:06:30;;;;;;;1.60;1.50;;;;;;;8.49;100.00;101521.16;5091845;28;20335;-75
2021/10/13 09:09:05;;;;;;;2.67;2.43;;;;;;;8.57;100.00;101512.44;5091878;28;20511;-74
2021/10/13 09:11:30;;;;;;;6.70;3.63;;;;;;;8.64;100.00;101523.88;5091745;28;20264;-74
2021/10/13 09:14:09;;;;;;;3.00;1.73;;;;;;;8.59;100.00;101510.25;5091312;28;20253;-74
2021/10/13 09:16:58;;;;;;;2.27;2.07;;;;;;;8.57;100.00;101507.00;5087786;28;20248;-75
2021/10/13 09:19:47;;;;;;;3.87;2.77;;;;;;;8.47;100.00;101515.97;5088908;28;20201;-74
2021/10/13 09:22:15;;;;;;;4.23;3.33;;;;;;;8.45;100.00;101511.88;5090148;28;20174;-74
2021/10/13 09:24:45;;;;;;;3.20;2.90;;;;;;;8.44;100.00;101507.53;5091305;28;20713;-75
2021/10/13 09:27:25;;;;;;;3.17;2.77;;;;;;;8.55;100.00;101520.06;5090271;28;20169;-74
2021/10/13 09:29:58;;;;;;;2.53;2.30;;;;;;;8.62;100.00;101526.88;5090185;28;20196;-74
2021/10/13 09:32:26;;;;;;;5.87;2.00;;;;;;;8.76;100.00;101527.16;5091490;28;20706;-74
2021/10/13 09:34:54;;;;;;;3.47;1.87;;;;;;;8.81;100.00;101534.50;5089867;28;20178;-74
2021/10/13 09:37:19;;;;;;;9.37;1.80;;;;;;;8.86;100.00;101527.16;5089905;28;20180;-74
2021/10/13 09:40:00;;;;;;;1.70;1.60;;;;;;;8.82;100.00;101531.50;5090896;28;20206;-74
2021/10/13 09:42:26;;;;;;;1.73;1.63;;;;;;;8.81;100.00;101523.59;5091288;28;20261;-74
2021/10/13 09:44:57;;;;;;;1.93;1.80;;;;;;;8.90;100.00;101532.88;5090832;28;20697;-74
2021/10/13 09:47:34;;;;;;;1.60;1.47;;;;;;;8.90;100.00;101525.50;5089881;28;20300;-74
2021/10/13 09:50:02;;;;;;;1.63;1.50;;;;;;;8.84;100.00;101525.81;5091125;28;20505;-74
2021/10/13 09:52:30;;;;;;;1.93;1.77;;;;;;;8.85;100.00;101528.25;5090872;28;20174;-74
2021/10/13 09:55:08;;;;;;;1.63;1.53;;;;;;;9.00;100.00;101532.06;5090748;28;20181;-75
2021/10/13 09:57:45;;;;;;;3.60;1.77;;;;;;;9.01;100.00;101528.25;5089614;28;20199;-74
2021/10/13 10:00:11;;;;;;;2.03;1.87;;;;;;;8.99;100.00;101530.44;5090993;28;20287;-75
2021/10/13 10:03:02;;;;;;;3.17;2.77;;;;;;;8.99;100.00;101523.06;5090712;28;20208;-74
2021/10/13 10:05:34;;;;;;;1.87;1.47;;;;;;;9.16;100.00;101533.66;5082807;28;20209;-74
2021/10/13 10:08:00;;;;;;;2.57;2.37;;;;;;;9.33;100.00;101519.72;5089637;28;20177;-74
2021/10/13 10:10:25;;;;;;;3.43;3.10;;;;;;;9.31;100.00;101522.75;5089465;28;20276;-74
2021/10/13 10:13:03;;;;;;;2.50;2.17;;;;;;;9.46;100.00;101536.34;5090673;28;20252;-74
2021/10/13 10:15:48;;;;;;;3.47;2.87;;;;;;;9.49;100.00;101530.31;5090452;28;20173;-74
2021/10/13 10:18:33;;;;;;;2.80;2.60;;;;;;;9.56;100.00;101526.50;5089450;28;20255;-74
2021/10/13 10:21:17;;;;;;;3.37;2.07;;;;;;;9.70;100.00;101527.53;5089257;28;20636;-74
2021/10/13 10:23:44;;;;;;;8.47;3.60;;;;;;;9.77;100.00;101528.03;5090347;28;20270;-74
2021/10/13 10:26:25;;;;;;;1.93;1.83;;;;;;;9.83;100.00;101530.47;5090514;28;20189;-74
2021/10/13 10:28:50;;;;;;;1.40;1.33;;;;;;;9.81;100.00;101524.47;5090585;28;20391;-74
2021/10/13 10:31:28;;;;;;;2.13;1.13;;;;;;;9.89;100.00;101527.72;5089205;28;20174;-74
2021/10/13 10:34:02;;;;;;;4.20;2.63;;;;;;;10.03;100.00;101532.28;5089056;28;20272;-74
2021/10/13 10:36:50;;;;;;;1.70;1.70;;;;;;;10.07;100.00;101524.34;5090537;28;20181;-74
2021/10/13 10:39:18;;;;;;;2.07;1.93;;;;;;;10.11;100.00;101526.22;5088916;28;20240;-74
2021/10/13 10:41:55;;;;;;;1.50;1.40;;;;;;;10.25;100.00;101526.47;5088820;28;20234;-74
2021/10/13 10:44:26;;;;;;;1.80;1.43;;;;;;;10.37;100.00;101513.28;5088788;28;20628;-74
2021/10/13 10:47:14;;;;;;;2.13;1.97;;;;;;;10.51;100.00;101518.91;5090357;28;20180;-74
2021/10/13 10:49:43;;;;;;;1.73;1.63;;;;;;;10.61;100.00;101520.75;5090278;28;20173;-74
2021/10/13 10:52:09;;;;;;;0.80;0.80;;;;;;;10.54;100.00;101515.59;5088960;28;20177;-74
2021/10/13 10:54:34;;;;;;;0.50;0.50;;;;;;;10.53;99.95;101513.16;5088795;28;20636;-74
2021/10/13 10:57:00;;;;;;;2.40;1.57;;;;;;;10.62;98.25;101504.06;5094296;28;20185;-74
2021/10/13 10:59:38;;;;;;;1.73;1.20;;;;;;;10.75;99.28;101501.78;5094470;28;20198;-74
2021/10/13 11:02:10;;;;;;;1.30;1.20;;;;;;;10.84;97.02;101511.81;5093017;28;20173;-74
2021/10/13 11:04:36;;;;;;;1.70;1.60;;;;;;;10.96;96.74;101503.22;5092504;28;20260;-75
2021/10/13 11:07:02;;;;;;;1.13;1.03;;;;;;;11.14;96.86;101523.56;5092990;28;20192;-74
2021/10/13 11:09:28;;;;;;;0.80;0.60;;;;;;;11.10;94.86;101506.94;5094175;28;20188;-74
2021/10/13 11:11:53;;;;;;;2.33;1.60;;;;;;;11.21;97.18;101515.84;5092828;28;20178;-74
2021/10/13 11:14:24;;;;;;;1.07;0.93;;;;;;;11.28;93.35;101517.16;5092458;28;20196;-74
2021/10/13 11:16:58;;;;;;;0.27;0.27;;;;;;;11.28;92.02;101513.56;5094058;28;20176;-74
2021/10/13 11:19:28;;;;;;;2.80;1.37;;;;;;;11.44;92.83;101515.06;5093871;28;20260;-74
2021/10/13 11:21:56;;;;;;;1.13;0.60;;;;;;;11.49;91.47;101511.44;5094007;28;20276;-74
2021/10/13 11:24:22;;;;;;;1.23;0.97;;;;;;;11.39;90.97;101509.63;5092385;28;20184;-74
2021/10/13 11:26:47;;;;;;;0.80;0.80;;;;;;;11.33;92.23;101505.34;5093889;28;20170;-74
2021/10/13 11:29:24;;;;;;;0.90;0.90;;;;;;;11.28;92.94;101508.94;5093815;28;20201;-74